Tuesday, September 16, 2014, 1:25 PM EDT

KLNS, Lancaster Airport

Location: Lititz, PA, United States Lat: 40.117
Local Time: 1:25 PM EDT (17:25 GMT) Lon: -76.3
Time Zone: US/Eastern Elev: 403 ft

Show me the last for .
Show Decoded

2014-09-16 12:53 METAR KLNS 161653Z 32008G18KT 10SM FEW040 SCT055 21/10 A3001 RMK AO2 SLP161
                 T02060100 =
2014-09-16 11:53 METAR KLNS 161553Z 29011KT 10SM FEW032 21/12 A3002 RMK AO2 SLP164 T02110117 =
2014-09-16 10:53 METAR KLNS 161453Z 30007KT 10SM SCT060 19/12 A3003 RMK AO2 SLP168 T01940122
                 51007 =
2014-09-16 09:53 METAR KLNS 161353Z 32008KT 8SM FEW060 18/13 A3003 RMK AO2 SLP168 T01830128 =
2014-09-16 08:53 METAR KLNS 161253Z 27008KT 6SM HZ CLR 16/13 A3002 RMK AO2 SLP165 T01560128 =
2014-09-16 07:53 METAR KLNS 161153Z 30004KT 3SM BR CLR 14/13 A3001 RMK AO2 SLP161 60001 70001
                 T01390128 10144 20122 53003 =
2014-09-16 07:15 METAR KLNS 161115Z 00000KT 3SM BR CLR 13/12 A3000 RMK AO2 T01280122 =
2014-09-16 07:07 METAR KLNS 161107Z 00000KT 1 1/2SM BR FEW110 13/12 A2999 RMK AO2 T01280122 =
2014-09-16 06:53 METAR KLNS 161053Z 00000KT 5SM BR FEW090 SCT110 13/12 A3000 RMK AO2 SLP158
                 T01330122 =
2014-09-16 06:18 METAR KLNS 161018Z 27003KT 6SM BR SCT015 OVC095 14/12 A3001 RMK AO2 T01390122 =
2014-09-16 05:53 METAR KLNS 160953Z 00000KT 7SM OVC016 14/13 A3000 RMK AO2 RAB23E33 SLP159 P0000
                 T01440128 =
2014-09-16 04:53 METAR KLNS 160853Z AUTO 00000KT 7SM OVC017 14/13 A3000 RMK AO2 RAB0755E09 SLP158
                 P0001 60001 T01440128 55014 =
2014-09-16 04:12 METAR KLNS 160812Z AUTO 33003KT 10SM BKN020 BKN025 OVC030 14/12 A3000 RMK AO2
                 RAB0755E09 P0001 T01390122 =
2014-09-16 03:53 METAR KLNS 160753Z AUTO 03003KT 9SM BKN030 BKN035 OVC041 14/12 A3000 RMK AO2
                 SLP157 T01390117 =
2014-09-16 02:53 METAR KLNS 160653Z AUTO 07005KT 9SM FEW039 BKN095 13/11 A3002 RMK AO2 SLP163
                 T01280106 =
2014-09-16 01:53 METAR KLNS 160553Z AUTO 07005KT 8SM FEW037 BKN045 12/11 A3004 RMK AO2 SLP172
                 T01220106 10178 20117 56012 =
2014-09-16 00:53 METAR KLNS 160453Z AUTO 14006KT 9SM SCT045 12/11 A3005 RMK AO2 SLP174 T01220106
                 402170067 =
2014-09-15 23:53 METAR KLNS 160353Z AUTO 08003KT 10SM CLR 13/11 A3007 RMK AO2 SLP182 T01280106 =
2014-09-15 22:53 METAR KLNS 160253Z AUTO 11003KT 10SM CLR 14/10 A3008 RMK AO2 SLP184 T01390100
                 58007 =
2014-09-15 21:53 METAR KLNS 160153Z 07003KT 10SM CLR 14/10 A3009 RMK AO2 SLP189 T01440100 =
2014-09-15 20:53 METAR KLNS 160053Z 18004KT 10SM CLR 16/10 A3010 RMK AO2 SLP191 T01610100 =
2014-09-15 19:53 METAR KLNS 152353Z 18007KT 10SM CLR 18/10 A3010 RMK AO2 SLP192 T01780100 10217
                 20178 55008 =
2014-09-15 18:53 METAR KLNS 152253Z 15006KT 10SM CLR 18/10 A3010 RMK AO2 SLP192 T01830100 =
2014-09-15 17:53 METAR KLNS 152153Z 22004KT 10SM CLR 21/09 A3011 RMK AO2 SLP197 T02060089 =
2014-09-15 16:53 METAR KLNS 152053Z VRB05KT 10SM CLR 21/08 A3012 RMK AO2 SLP201 T02110083 56021 =
2014-09-15 15:53 METAR KLNS 151953Z 24007KT 210V270 10SM CLR 21/08 A3015 RMK AO2 SLP208 T02110078
                 =
2014-09-15 14:53 METAR KLNS 151853Z 27005KT 10SM CLR 21/07 A3016 RMK AO2 SLP213 T02060072 =
2014-09-15 13:53 METAR KLNS 151753Z VRB03KT 10SM FEW050 21/07 A3019 RMK AO2 SLP221 T02060072
                 10206 20089 58024 =

Support USWX by starting your Amazon purchase here.